Time;durP1;ratioP1;P1;durP2;ratioP2;P2;SDS_P1;SDS_P2;PMS_P1;PMS_P2;Temp;Humidity;BMP_temperature;BMP_pressure;BME280_temperature;BME280_humidity;BME280_pressure;Samples;Min_cycle;Max_cycle;Signal;HPM_P1;HPM_P2
2022/04/09 00:01:56;;;;;;;1.60;0.90;;;;;;;;;;5031178;28;20032;-61
2022/04/09 00:04:21;;;;;;;3.10;0.50;;;;;;;;;;5041021;28;20041;-61
2022/04/09 00:06:46;;;;;;;1.70;0.60;;;;;;;;;;5039547;28;20029;-61
2022/04/09 00:09:12;;;;;;;1.50;0.75;;;;;;;;;;5046314;28;20017;-61
2022/04/09 00:11:37;;;;;;;1.00;0.70;;;;;;;;;;5058720;28;20095;-60
2022/04/09 00:14:02;;;;;;;1.52;0.90;;;;;;;;;;5049179;28;20021;-61
2022/04/09 00:16:27;;;;;;;1.25;1.02;;;;;;;;;;5037109;28;20021;-61
2022/04/09 00:18:52;;;;;;;2.63;1.30;;;;;;;;;;5050169;28;20052;-61
2022/04/09 00:21:18;;;;;;;2.30;1.25;;;;;;;;;;5050456;28;20033;-61
2022/04/09 00:23:43;;;;;;;2.15;1.50;;;;;;;;;;5051483;28;20033;-61
2022/04/09 00:26:08;;;;;;;2.42;2.22;;;;;;;;;;5034983;28;20421;-61
2022/04/09 00:28:33;;;;;;;1.60;1.50;;;;;;;;;;5030879;28;20025;-61
2022/04/09 00:30:59;;;;;;;2.75;1.63;;;;;;;;;;5043571;28;20025;-60
2022/04/09 00:33:24;;;;;;;2.85;1.77;;;;;;;;;;5051793;28;20029;-61
2022/04/09 00:35:49;;;;;;;3.37;2.10;;;;;;;;;;5054223;28;20033;-61
2022/04/09 00:38:14;;;;;;;2.30;1.90;;;;;;;;;;5055334;28;20043;-61
2022/04/09 00:40:39;;;;;;;2.28;1.88;;;;;;;;;;5053168;28;20037;-61
2022/04/09 00:43:05;;;;;;;1.92;1.83;;;;;;;;;;5058815;28;20028;-61
2022/04/09 00:45:30;;;;;;;2.65;2.20;;;;;;;;;;5046963;28;20036;-61
2022/04/09 00:47:55;;;;;;;3.15;2.10;;;;;;;;;;5054214;28;20021;-60
2022/04/09 00:50:20;;;;;;;2.70;2.30;;;;;;;;;;5068879;28;20024;-59
2022/04/09 00:52:47;;;;;;;2.23;1.87;;;;;;;;;;5074246;28;20028;-60
2022/04/09 00:55:13;;;;;;;4.37;2.00;;;;;;;;;;5074294;28;20030;-60
2022/04/09 00:57:40;;;;;;;2.47;2.10;;;;;;;;;;5049373;28;20025;-60
2022/04/09 01:00:09;;;;;;;1.97;1.70;;;;;;;;;;5040103;28;20538;-60
2022/04/09 01:02:36;;;;;;;2.00;1.80;;;;;;;;;;5033707;28;20029;-60
2022/04/09 01:05:01;;;;;;;2.70;1.80;;;;;;;;;;5048485;28;20408;-60
2022/04/09 01:07:29;;;;;;;2.37;2.07;;;;;;;;;;5049057;28;20021;-60
2022/04/09 01:09:54;;;;;;;2.93;2.10;;;;;;;;;;5056219;28;20025;-60
2022/04/09 01:12:19;;;;;;;3.70;2.65;;;;;;;;;;5063300;28;20055;-60
2022/04/09 01:14:45;;;;;;;2.20;2.00;;;;;;;;;;5052495;28;20033;-61
2022/04/09 01:17:10;;;;;;;3.75;3.00;;;;;;;;;;5053445;28;20463;-60
2022/04/09 01:19:35;;;;;;;4.88;3.20;;;;;;;;;;5051754;28;20040;-60
2022/04/09 01:22:00;;;;;;;5.00;3.42;;;;;;;;;;5053147;28;20029;-60
2022/04/09 01:24:26;;;;;;;5.32;3.63;;;;;;;;;;5052474;28;20021;-60
2022/04/09 01:26:51;;;;;;;4.90;3.80;;;;;;;;;;5051745;28;20362;-58
2022/04/09 01:29:16;;;;;;;5.32;3.30;;;;;;;;;;5034751;28;20034;-61
2022/04/09 01:31:42;;;;;;;6.32;4.25;;;;;;;;;;5049750;28;20020;-61
2022/04/09 01:34:07;;;;;;;4.63;3.58;;;;;;;;;;5053404;28;20029;-61
2022/04/09 01:36:32;;;;;;;4.80;4.25;;;;;;;;;;5045335;28;20037;-60
2022/04/09 01:38:57;;;;;;;4.72;4.18;;;;;;;;;;5040182;28;20309;-61
2022/04/09 01:41:23;;;;;;;6.05;4.07;;;;;;;;;;5034122;28;20456;-61
2022/04/09 01:43:48;;;;;;;5.45;4.00;;;;;;;;;;5048290;28;20029;-61
2022/04/09 01:46:13;;;;;;;5.73;3.87;;;;;;;;;;5039891;28;20025;-61
2022/04/09 01:48:41;;;;;;;4.70;3.60;;;;;;;;;;5049625;28;20025;-60
2022/04/09 01:51:06;;;;;;;4.40;3.67;;;;;;;;;;5041692;28;20025;-61
2022/04/09 01:53:33;;;;;;;6.72;4.72;;;;;;;;;;5052937;28;20410;-61
2022/04/09 01:55:58;;;;;;;4.53;3.93;;;;;;;;;;5053109;28;20025;-61
2022/04/09 01:58:24;;;;;;;6.93;4.72;;;;;;;;;;5041203;28;20047;-61
2022/04/09 02:00:49;;;;;;;6.23;4.83;;;;;;;;;;5049900;28;20032;-61
2022/04/09 02:03:14;;;;;;;5.87;4.70;;;;;;;;;;5039143;28;20018;-61
2022/04/09 02:05:39;;;;;;;6.47;5.43;;;;;;;;;;5048300;28;20481;-61
2022/04/09 02:08:05;;;;;;;6.73;5.70;;;;;;;;;;5049173;28;20025;-61
2022/04/09 02:10:31;;;;;;;6.97;5.43;;;;;;;;;;5051917;28;20017;-61
2022/04/09 02:12:57;;;;;;;7.30;5.50;;;;;;;;;;5032846;28;20018;-61
2022/04/09 02:15:22;;;;;;;9.53;6.67;;;;;;;;;;5032647;28;20399;-61
2022/04/09 02:17:47;;;;;;;7.83;6.17;;;;;;;;;;5042917;28;20120;-61
2022/04/09 02:20:13;;;;;;;10.93;7.13;;;;;;;;;;5051925;28;20389;-61
2022/04/09 02:22:40;;;;;;;9.90;6.80;;;;;;;;;;5051977;28;20488;-61
2022/04/09 02:25:07;;;;;;;8.03;5.80;;;;;;;;;;5052576;28;20103;-61
2022/04/09 02:27:34;;;;;;;8.80;5.97;;;;;;;;;;5043779;28;20028;-61
2022/04/09 02:29:59;;;;;;;10.13;7.17;;;;;;;;;;5039958;28;20028;-61
2022/04/09 02:32:24;;;;;;;9.23;6.40;;;;;;;;;;5050631;28;20029;-60
2022/04/09 02:34:53;;;;;;;9.07;6.20;;;;;;;;;;5051086;28;20025;-60
2022/04/09 02:37:18;;;;;;;7.63;6.00;;;;;;;;;;5036836;28;20485;-60
2022/04/09 02:39:43;;;;;;;9.83;6.23;;;;;;;;;;5048699;28;20131;-60
2022/04/09 02:42:09;;;;;;;11.57;6.68;;;;;;;;;;5043709;28;20021;-60
2022/04/09 02:44:34;;;;;;;8.90;6.73;;;;;;;;;;5048990;28;20013;-62
2022/04/09 02:46:59;;;;;;;7.57;6.00;;;;;;;;;;5052178;28;20032;-62
2022/04/09 02:49:24;;;;;;;8.60;6.75;;;;;;;;;;5051519;28;20076;-62
2022/04/09 02:51:49;;;;;;;9.52;6.63;;;;;;;;;;5050674;28;20386;-62
2022/04/09 02:54:17;;;;;;;9.30;6.60;;;;;;;;;;5051056;28;20382;-62
2022/04/09 02:56:44;;;;;;;8.85;7.47;;;;;;;;;;5050869;28;20033;-60
2022/04/09 02:59:09;;;;;;;9.77;6.55;;;;;;;;;;5031983;28;20132;-60
2022/04/09 03:01:35;;;;;;;9.23;6.60;;;;;;;;;;5048210;28;20435;-61
2022/04/09 03:04:00;;;;;;;7.90;6.40;;;;;;;;;;5049736;28;20025;-59
2022/04/09 03:06:25;;;;;;;9.63;6.80;;;;;;;;;;5043615;28;20076;-60
2022/04/09 03:08:50;;;;;;;8.07;6.13;;;;;;;;;;5031807;28;20026;-60
2022/04/09 03:11:15;;;;;;;9.20;6.88;;;;;;;;;;5052452;28;20043;-60
2022/04/09 03:13:40;;;;;;;6.30;5.13;;;;;;;;;;5051235;28;20531;-60
2022/04/09 03:16:06;;;;;;;7.03;5.03;;;;;;;;;;5038126;28;20056;-60
2022/04/09 03:18:31;;;;;;;6.57;5.38;;;;;;;;;;5051722;28;20020;-59
2022/04/09 03:20:56;;;;;;;8.75;5.68;;;;;;;;;;5051063;28;20025;-60
2022/04/09 03:23:21;;;;;;;8.90;5.78;;;;;;;;;;5051141;28;20040;-60
2022/04/09 03:25:48;;;;;;;7.30;5.70;;;;;;;;;;5051926;28;20025;-60
2022/04/09 03:28:13;;;;;;;7.38;5.65;;;;;;;;;;5042273;28;20013;-60
2022/04/09 03:30:38;;;;;;;6.68;4.55;;;;;;;;;;5031553;28;20022;-59
2022/04/09 03:33:05;;;;;;;7.15;5.65;;;;;;;;;;5036060;28;20475;-60
2022/04/09 03:35:30;;;;;;;8.23;5.97;;;;;;;;;;5059998;28;20074;-60
2022/04/09 03:37:56;;;;;;;7.45;5.50;;;;;;;;;;5031672;28;20108;-60
2022/04/09 03:40:21;;;;;;;6.37;4.77;;;;;;;;;;5031688;28;20112;-60
2022/04/09 03:42:46;;;;;;;8.53;5.73;;;;;;;;;;5044596;28;20059;-60
2022/04/09 03:45:11;;;;;;;7.87;5.93;;;;;;;;;;5058163;28;20039;-60
2022/04/09 03:47:37;;;;;;;7.00;5.65;;;;;;;;;;5071606;28;20048;-60
2022/04/09 03:50:03;;;;;;;6.37;4.87;;;;;;;;;;5069123;28;20019;-61
2022/04/09 03:52:28;;;;;;;7.20;5.40;;;;;;;;;;5051358;28;20044;-60
2022/04/09 03:54:53;;;;;;;8.18;4.90;;;;;;;;;;5050149;28;20478;-60
2022/04/09 03:57:19;;;;;;;6.37;4.90;;;;;;;;;;5055752;28;20473;-61
2022/04/09 03:59:44;;;;;;;9.37;5.40;;;;;;;;;;5030211;28;20499;-61
2022/04/09 04:02:10;;;;;;;6.53;5.50;;;;;;;;;;5033297;28;20022;-61
2022/04/09 04:04:37;;;;;;;7.72;4.40;;;;;;;;;;5050433;28;20033;-61
2022/04/09 04:07:02;;;;;;;9.07;6.33;;;;;;;;;;5041331;28;20029;-60
2022/04/09 04:09:27;;;;;;;8.00;5.45;;;;;;;;;;5035306;28;20029;-60
2022/04/09 04:11:52;;;;;;;9.50;6.67;;;;;;;;;;5034894;28;20033;-60
2022/04/09 04:14:17;;;;;;;10.37;6.13;;;;;;;;;;5060922;28;20035;-60
2022/04/09 04:16:43;;;;;;;8.47;5.70;;;;;;;;;;5054591;28;20541;-60
2022/04/09 04:19:09;;;;;;;8.43;5.90;;;;;;;;;;5054289;28;20029;-60
2022/04/09 04:21:34;;;;;;;6.57;5.17;;;;;;;;;;5054697;28;20029;-60
2022/04/09 04:23:59;;;;;;;7.60;6.00;;;;;;;;;;5054564;28;20929;-60
2022/04/09 04:26:24;;;;;;;8.20;6.10;;;;;;;;;;5054153;28;20476;-60
2022/04/09 04:28:51;;;;;;;7.07;4.63;;;;;;;;;;5037548;28;20056;-61
2022/04/09 04:31:16;;;;;;;11.17;6.80;;;;;;;;;;5034540;28;20018;-60
2022/04/09 04:33:41;;;;;;;8.03;5.77;;;;;;;;;;5043497;28;20098;-60
2022/04/09 04:36:06;;;;;;;8.40;6.45;;;;;;;;;;5048964;28;20033;-60
2022/04/09 04:38:32;;;;;;;7.70;5.53;;;;;;;;;;5052562;28;20033;-60
2022/04/09 04:40:57;;;;;;;9.00;6.50;;;;;;;;;;5054034;28;20448;-60
2022/04/09 04:43:22;;;;;;;10.77;6.00;;;;;;;;;;5061443;28;20024;-60
2022/04/09 04:45:47;;;;;;;7.90;6.43;;;;;;;;;;5056380;28;20048;-61
2022/04/09 04:48:12;;;;;;;10.20;6.40;;;;;;;;;;5062451;28;20055;-60
2022/04/09 04:50:38;;;;;;;7.32;6.45;;;;;;;;;;5059539;28;20025;-60
2022/04/09 04:53:03;;;;;;;11.73;7.07;;;;;;;;;;5053115;28;20370;-59
2022/04/09 04:55:28;;;;;;;9.45;6.63;;;;;;;;;;5057982;28;20028;-61
2022/04/09 04:57:55;;;;;;;7.33;6.43;;;;;;;;;;5056116;28;20462;-60
2022/04/09 05:00:21;;;;;;;9.07;6.50;;;;;;;;;;5041805;28;20045;-61
2022/04/09 05:02:46;;;;;;;9.47;7.60;;;;;;;;;;5041170;28;20029;-60
2022/04/09 05:05:11;;;;;;;9.37;6.83;;;;;;;;;;5067593;28;20037;-61
2022/04/09 05:07:40;;;;;;;10.47;6.73;;;;;;;;;;5038437;28;20414;-61
2022/04/09 05:10:06;;;;;;;10.68;6.35;;;;;;;;;;5056695;28;20017;-61
2022/04/09 05:12:32;;;;;;;9.37;6.50;;;;;;;;;;5052274;28;20025;-61
2022/04/09 05:14:57;;;;;;;10.00;7.37;;;;;;;;;;5048753;28;20022;-61
2022/04/09 05:17:23;;;;;;;9.97;7.40;;;;;;;;;;5063607;28;20099;-61
2022/04/09 05:19:48;;;;;;;9.85;4.82;;;;;;;;;;5054242;28;20116;-61
2022/04/09 05:22:13;;;;;;;8.82;7.03;;;;;;;;;;5053468;28;20021;-61
2022/04/09 05:24:38;;;;;;;8.60;6.72;;;;;;;;;;5052957;28;20060;-61
2022/04/09 05:27:03;;;;;;;9.02;6.72;;;;;;;;;;5063664;28;20033;-61
2022/04/09 05:29:29;;;;;;;11.38;8.02;;;;;;;;;;5039987;28;20021;-61
2022/04/09 05:31:54;;;;;;;10.30;7.82;;;;;;;;;;5048479;28;20029;-61
2022/04/09 05:34:19;;;;;;;9.30;7.07;;;;;;;;;;5067522;28;20040;-61
2022/04/09 05:36:44;;;;;;;9.07;6.80;;;;;;;;;;5045306;28;20018;-61
2022/04/09 05:39:11;;;;;;;9.50;7.00;;;;;;;;;;5066343;28;20064;-60
2022/04/09 05:41:36;;;;;;;11.02;6.38;;;;;;;;;;5055673;28;20448;-61
2022/04/09 05:44:01;;;;;;;9.25;6.72;;;;;;;;;;5052501;28;20121;-61
2022/04/09 05:46:26;;;;;;;10.60;6.40;;;;;;;;;;5056919;28;20035;-61
2022/04/09 05:48:52;;;;;;;8.02;6.38;;;;;;;;;;5059186;28;20496;-61
2022/04/09 05:51:17;;;;;;;10.00;6.13;;;;;;;;;;5044148;28;20376;-61
2022/04/09 05:53:42;;;;;;;11.27;7.15;;;;;;;;;;5054352;28;20494;-61
2022/04/09 05:56:07;;;;;;;7.88;5.75;;;;;;;;;;5053995;28;20036;-61
2022/04/09 05:58:34;;;;;;;8.98;4.80;;;;;;;;;;5038108;28;20394;-61
2022/04/09 06:01:01;;;;;;;4.72;3.60;;;;;;;;;;5062430;28;20033;-60
2022/04/09 06:03:26;;;;;;;5.68;2.90;;;;;;;;;;5034324;28;20108;-60
2022/04/09 06:05:51;;;;;;;4.60;2.70;;;;;;;;;;5049814;28;20127;-60
2022/04/09 06:08:17;;;;;;;5.63;2.47;;;;;;;;;;5047016;28;20020;-60
2022/04/09 06:10:42;;;;;;;3.90;3.50;;;;;;;;;;5072697;28;20024;-60
2022/04/09 06:13:07;;;;;;;6.57;4.50;;;;;;;;;;5054638;28;20035;-60
2022/04/09 06:15:32;;;;;;;9.52;4.85;;;;;;;;;;5037492;28;20425;-60
2022/04/09 06:18:03;;;;;;;7.25;4.28;;;;;;;;;;5050388;28;20094;-60
2022/04/09 06:20:29;;;;;;;4.63;2.78;;;;;;;;;;5052122;28;20434;-60
2022/04/09 06:22:54;;;;;;;7.03;3.42;;;;;;;;;;5051983;28;20052;-60
2022/04/09 06:25:19;;;;;;;6.75;3.80;;;;;;;;;;5052378;28;20098;-60
2022/04/09 06:27:44;;;;;;;6.65;2.10;;;;;;;;;;5045041;28;20028;-61
2022/04/09 06:30:10;;;;;;;3.55;1.75;;;;;;;;;;5050761;28;20033;-60
2022/04/09 06:32:35;;;;;;;4.75;1.67;;;;;;;;;;5040878;28;20030;-60
2022/04/09 06:35:00;;;;;;;10.70;3.75;;;;;;;;;;5036841;28;20021;-59
2022/04/09 06:37:25;;;;;;;8.05;4.95;;;;;;;;;;5042211;28;20061;-61
2022/04/09 06:39:51;;;;;;;5.43;1.90;;;;;;;;;;5052141;28;20371;-61
2022/04/09 06:42:16;;;;;;;6.68;2.53;;;;;;;;;;5042058;28;20022;-61
2022/04/09 06:44:41;;;;;;;3.83;1.80;;;;;;;;;;5033633;28;20391;-61
2022/04/09 06:47:08;;;;;;;3.92;1.92;;;;;;;;;;5051285;28;20473;-61
2022/04/09 06:49:34;;;;;;;6.55;2.30;;;;;;;;;;5037725;28;20033;-61
2022/04/09 06:52:00;;;;;;;2.53;1.52;;;;;;;;;;5043676;28;20025;-61
2022/04/09 06:54:25;;;;;;;4.80;1.88;;;;;;;;;;5049225;28;20136;-61
2022/04/09 06:56:50;;;;;;;5.82;1.85;;;;;;;;;;5042948;28;20104;-61
2022/04/09 06:59:15;;;;;;;6.78;1.70;;;;;;;;;;5046425;28;20057;-60
2022/04/09 07:01:41;;;;;;;4.28;2.00;;;;;;;;;;5034995;28;20033;-60
2022/04/09 07:04:06;;;;;;;5.00;2.30;;;;;;;;;;5051759;28;20393;-60
2022/04/09 07:06:31;;;;;;;4.20;2.08;;;;;;;;;;5046235;28;20550;-61
2022/04/09 07:08:57;;;;;;;4.20;2.15;;;;;;;;;;5049775;28;20473;-60
2022/04/09 07:11:23;;;;;;;5.38;1.70;;;;;;;;;;5044824;28;20012;-60
2022/04/09 07:13:48;;;;;;;4.20;1.00;;;;;;;;;;5031968;28;20080;-60
2022/04/09 07:16:13;;;;;;;5.72;2.08;;;;;;;;;;5045042;28;20393;-59
2022/04/09 07:18:38;;;;;;;6.45;1.70;;;;;;;;;;5029284;28;20037;-59
2022/04/09 07:21:04;;;;;;;1.88;0.75;;;;;;;;;;5049223;28;20082;-59
2022/04/09 07:23:29;;;;;;;1.88;1.20;;;;;;;;;;5068046;28;20502;-59
2022/04/09 07:25:54;;;;;;;3.10;1.38;;;;;;;;;;5036522;28;20463;-61
2022/04/09 07:28:19;;;;;;;6.35;1.67;;;;;;;;;;5031923;28;20030;-59
2022/04/09 07:30:45;;;;;;;5.47;1.33;;;;;;;;;;5039982;28;20072;-60
2022/04/09 07:33:10;;;;;;;4.80;2.10;;;;;;;;;;5048129;28;20057;-60
2022/04/09 07:35:35;;;;;;;6.75;1.73;;;;;;;;;;5047106;28;20056;-60
2022/04/09 07:38:01;;;;;;;3.97;1.60;;;;;;;;;;5050654;28;20028;-63
2022/04/09 07:40:29;;;;;;;7.05;2.00;;;;;;;;;;5053574;28;20052;-60
2022/04/09 07:42:55;;;;;;;3.20;1.48;;;;;;;;;;5048223;28;20029;-71
2022/04/09 07:45:21;;;;;;;3.65;1.58;;;;;;;;;;5043744;28;20120;-70
2022/04/09 07:47:46;;;;;;;4.30;1.30;;;;;;;;;;5047659;28;20017;-74
2022/04/09 07:50:12;;;;;;;4.68;1.30;;;;;;;;;;5035616;28;20025;-74
2022/04/09 07:52:39;;;;;;;3.72;1.02;;;;;;;;;;5052765;28;20068;-74
2022/04/09 07:55:05;;;;;;;6.95;1.50;;;;;;;;;;5053725;28;20025;-55
2022/04/09 07:57:30;;;;;;;4.85;0.70;;;;;;;;;;5044394;28;20431;-59
2022/04/09 07:59:57;;;;;;;3.40;0.82;;;;;;;;;;5043001;28;20061;-58
2022/04/09 08:02:22;;;;;;;3.05;0.70;;;;;;;;;;5044452;28;20017;-66
2022/04/09 08:04:48;;;;;;;2.08;0.70;;;;;;;;;;5054893;28;20020;-70
2022/04/09 08:07:13;;;;;;;1.63;0.70;;;;;;;;;;5046924;28;20100;-68
2022/04/09 08:09:38;;;;;;;1.88;0.40;;;;;;;;;;5050664;28;20497;-67
2022/04/09 08:12:04;;;;;;;3.90;0.40;;;;;;;;;;5050611;28;20029;-68
2022/04/09 08:14:32;;;;;;;2.72;0.63;;;;;;;;;;5060998;28;20025;-58
2022/04/09 08:16:57;;;;;;;3.15;0.50;;;;;;;;;;5040136;28;20123;-71
2022/04/09 08:19:23;;;;;;;3.00;0.10;;;;;;;;;;5052815;28;20048;-68
2022/04/09 08:21:48;;;;;;;1.48;0.22;;;;;;;;;;5055161;28;20017;-70
2022/04/09 08:24:13;;;;;;;2.20;0.20;;;;;;;;;;5052565;28;20036;-74
2022/04/09 08:26:38;;;;;;;2.25;0.77;;;;;;;;;;5041952;28;20190;-63
2022/04/09 08:29:05;;;;;;;4.38;0.32;;;;;;;;;;5048658;28;20426;-66
2022/04/09 08:31:30;;;;;;;2.92;0.30;;;;;;;;;;5053077;28;20033;-68
2022/04/09 08:33:56;;;;;;;0.65;0.20;;;;;;;;;;5057977;28;20023;-74
2022/04/09 08:36:21;;;;;;;2.13;0.30;;;;;;;;;;5063223;28;20056;-74
2022/04/09 08:38:47;;;;;;;1.15;0.40;;;;;;;;;;5060282;28;20496;-74
2022/04/09 08:41:15;;;;;;;1.63;0.30;;;;;;;;;;5052502;28;20113;-76
2022/04/09 08:43:40;;;;;;;0.85;0.22;;;;;;;;;;5052257;28;20121;-74
2022/04/09 08:46:05;;;;;;;2.22;0.20;;;;;;;;;;5052142;28;20425;-77
2022/04/09 08:48:31;;;;;;;2.17;0.30;;;;;;;;;;5041991;28;20024;-76
2022/04/09 08:50:57;;;;;;;2.05;0.40;;;;;;;;;;5046498;28;20021;-76
2022/04/09 08:53:22;;;;;;;2.28;0.60;;;;;;;;;;5053198;28;20045;-76
2022/04/09 08:55:48;;;;;;;3.53;0.45;;;;;;;;;;5052185;28;20052;-76
2022/04/09 08:58:13;;;;;;;2.63;0.40;;;;;;;;;;5038447;28;20032;-76
2022/04/09 09:00:39;;;;;;;2.35;0.45;;;;;;;;;;5046329;28;20553;-76
2022/04/09 09:03:10;;;;;;;1.10;0.20;;;;;;;;;;5046985;28;20115;-76
2022/04/09 09:05:40;;;;;;;1.98;0.20;;;;;;;;;;5034642;28;20046;-75
2022/04/09 09:08:06;;;;;;;3.90;0.20;;;;;;;;;;5051011;28;20463;-75
2022/04/09 09:10:31;;;;;;;0.90;0.30;;;;;;;;;;5051963;28;20028;-74
2022/04/09 09:12:58;;;;;;;1.08;0.20;;;;;;;;;;5046423;28;20101;-75
2022/04/09 09:15:23;;;;;;;1.67;0.10;;;;;;;;;;5041334;28;20105;-75
2022/04/09 09:17:49;;;;;;;1.55;0.30;;;;;;;;;;5067229;28;20112;-74
2022/04/09 09:20:15;;;;;;;1.58;0.25;;;;;;;;;;5049784;28;20028;-75
2022/04/09 09:22:42;;;;;;;1.83;0.40;;;;;;;;;;5045923;28;20029;-75
2022/04/09 09:25:09;;;;;;;0.98;0.50;;;;;;;;;;5051384;28;20482;-74
2022/04/09 09:27:34;;;;;;;2.33;0.40;;;;;;;;;;5040870;28;20196;-71
2022/04/09 09:29:59;;;;;;;2.47;0.35;;;;;;;;;;5038574;28;20109;-65
2022/04/09 09:32:26;;;;;;;1.55;0.43;;;;;;;;;;5036695;28;20033;-64
2022/04/09 09:34:59;;;;;;;4.50;1.02;;;;;;;;;;5049761;28;20543;-65
2022/04/09 09:37:25;;;;;;;4.28;0.20;;;;;;;;;;5043930;28;20161;-65
2022/04/09 09:39:50;;;;;;;1.17;0.32;;;;;;;;;;5038636;28;20029;-65
2022/04/09 09:42:19;;;;;;;2.13;0.40;;;;;;;;;;5036269;28;20021;-65
2022/04/09 09:44:44;;;;;;;2.65;0.63;;;;;;;;;;5039849;28;20017;-65
2022/04/09 09:47:12;;;;;;;1.27;0.10;;;;;;;;;;5038200;28;20432;-66
2022/04/09 09:49:58;;;;;;;3.35;0.40;;;;;;;;;;5034974;28;21304;-66
2022/04/09 09:52:23;;;;;;;1.95;0.30;;;;;;;;;;5039685;28;20445;-68
2022/04/09 09:55:15;;;;;;;2.05;0.13;;;;;;;;;;5043599;28;20331;-71
2022/04/09 09:57:42;;;;;;;4.80;0.47;;;;;;;;;;5045603;28;20021;-70
2022/04/09 10:00:11;;;;;;;3.38;0.38;;;;;;;;;;5038834;28;20096;-71
2022/04/09 10:02:37;;;;;;;1.55;0.40;;;;;;;;;;5031590;28;20037;-70
2022/04/09 10:05:02;;;;;;;1.85;0.20;;;;;;;;;;5035352;28;20057;-71
2022/04/09 10:07:27;;;;;;;0.10;0.00;;;;;;;;;;5035486;28;20060;-71
2022/04/09 10:09:54;;;;;;;0.60;0.10;;;;;;;;;;5042852;28;20136;-71
2022/04/09 10:12:19;;;;;;;2.22;0.20;;;;;;;;;;5036948;28;20681;-71
2022/04/09 10:14:55;;;;;;;0.47;0.00;;;;;;;;;;5035016;28;20021;-70
2022/04/09 10:17:21;;;;;;;0.38;0.00;;;;;;;;;;5039530;28;20044;-67
2022/04/09 10:19:51;;;;;;;1.65;0.20;;;;;;;;;;5033239;28;20033;-70
2022/04/09 10:22:17;;;;;;;1.38;0.30;;;;;;;;;;5036015;28;20029;-71
2022/04/09 10:24:42;;;;;;;0.73;0.20;;;;;;;;;;5032186;28;20033;-71
2022/04/09 10:27:08;;;;;;;1.60;0.20;;;;;;;;;;5025096;28;20116;-69
2022/04/09 10:29:47;;;;;;;1.45;0.30;;;;;;;;;;5041297;28;20044;-69
2022/04/09 10:32:32;;;;;;;1.80;0.30;;;;;;;;;;5039552;28;20434;-67
2022/04/09 10:34:58;;;;;;;2.38;0.73;;;;;;;;;;5047114;28;20501;-69
2022/04/09 10:37:23;;;;;;;1.67;0.35;;;;;;;;;;5048183;28;20017;-69
2022/04/09 10:39:52;;;;;;;0.77;0.20;;;;;;;;;;5036968;28;20031;-71
2022/04/09 10:42:41;;;;;;;1.98;0.30;;;;;;;;;;5049303;28;20017;-70
2022/04/09 10:45:06;;;;;;;1.80;0.20;;;;;;;;;;5042672;28;20124;-71
2022/04/09 10:47:51;;;;;;;2.15;0.40;;;;;;;;;;5034456;28;20119;-70
2022/04/09 10:50:17;;;;;;;2.28;0.30;;;;;;;;;;5057814;28;20013;-71
2022/04/09 10:52:47;;;;;;;1.40;0.30;;;;;;;;;;5047397;28;20027;-66
2022/04/09 10:55:12;;;;;;;0.63;0.20;;;;;;;;;;5040383;28;20028;-69
2022/04/09 10:57:41;;;;;;;1.65;0.10;;;;;;;;;;5036554;28;20021;-70
2022/04/09 11:00:07;;;;;;;0.90;0.20;;;;;;;;;;5042758;28;20174;-72
2022/04/09 11:02:32;;;;;;;1.55;0.28;;;;;;;;;;5042382;28;20029;-70
2022/04/09 11:05:17;;;;;;;1.13;0.10;;;;;;;;;;5017959;28;20028;-68
2022/04/09 11:08:01;;;;;;;2.17;0.30;;;;;;;;;;5037342;28;20025;-70
2022/04/09 11:10:26;;;;;;;2.92;0.50;;;;;;;;;;5042250;28;20112;-71
2022/04/09 11:12:51;;;;;;;1.40;0.30;;;;;;;;;;5032625;28;20117;-71
2022/04/09 11:15:17;;;;;;;1.65;0.43;;;;;;;;;;5035920;28;20083;-70
2022/04/09 11:17:43;;;;;;;2.65;0.50;;;;;;;;;;5033692;28;20033;-70
2022/04/09 11:20:11;;;;;;;2.38;0.20;;;;;;;;;;5033342;28;20025;-68
2022/04/09 11:22:37;;;;;;;1.15;0.30;;;;;;;;;;5036012;28;20104;-71
2022/04/09 11:25:06;;;;;;;0.25;0.13;;;;;;;;;;5044321;28;20112;-70
2022/04/09 11:27:31;;;;;;;0.75;0.20;;;;;;;;;;5044240;28;21424;-71
2022/04/09 11:29:57;;;;;;;1.70;0.10;;;;;;;;;;5038244;28;20013;-70
2022/04/09 11:32:22;;;;;;;0.38;0.20;;;;;;;;;;5051645;28;20021;-73
2022/04/09 11:34:49;;;;;;;0.73;0.20;;;;;;;;;;5037229;28;20025;-70
2022/04/09 11:37:14;;;;;;;0.63;0.20;;;;;;;;;;5031642;28;20100;-70
2022/04/09 11:39:40;;;;;;;1.02;0.20;;;;;;;;;;5035086;28;20136;-71
2022/04/09 11:42:06;;;;;;;0.95;0.15;;;;;;;;;;5038125;28;20032;-70
2022/04/09 11:44:31;;;;;;;0.20;0.10;;;;;;;;;;5041964;28;20056;-68
2022/04/09 11:46:58;;;;;;;2.05;0.73;;;;;;;;;;5042723;28;20038;-68
2022/04/09 11:49:30;;;;;;;0.55;0.17;;;;;;;;;;5031049;28;20029;-68
2022/04/09 11:51:56;;;;;;;0.38;0.20;;;;;;;;;;5049275;28;20021;-69
2022/04/09 11:54:21;;;;;;;0.35;0.10;;;;;;;;;;5038917;28;20014;-67
2022/04/09 11:56:46;;;;;;;0.30;0.20;;;;;;;;;;5043719;28;20036;-66
2022/04/09 11:59:13;;;;;;;0.45;0.32;;;;;;;;;;5044094;28;20037;-66
2022/04/09 12:01:38;;;;;;;0.60;0.20;;;;;;;;;;5044433;28;20089;-67
2022/04/09 12:04:04;;;;;;;0.30;0.10;;;;;;;;;;5048132;28;20037;-69
2022/04/09 12:06:29;;;;;;;1.20;0.10;;;;;;;;;;5035302;28;20034;-69
2022/04/09 12:08:54;;;;;;;1.60;0.20;;;;;;;;;;5033022;28;20021;-70
2022/04/09 12:11:20;;;;;;;0.50;0.15;;;;;;;;;;5040250;28;20033;-70
2022/04/09 12:13:46;;;;;;;0.77;0.20;;;;;;;;;;5035355;28;20067;-70
2022/04/09 12:16:19;;;;;;;0.43;0.10;;;;;;;;;;5047903;28;20021;-70
2022/04/09 12:18:45;;;;;;;1.13;0.20;;;;;;;;;;5043709;28;20021;-70
2022/04/09 12:21:16;;;;;;;0.20;0.00;;;;;;;;;;5043400;28;20043;-69
2022/04/09 12:23:41;;;;;;;0.40;0.13;;;;;;;;;;5042820;28;20519;-69
2022/04/09 12:26:20;;;;;;;1.03;0.20;;;;;;;;;;5045686;28;20037;-73
2022/04/09 12:28:45;;;;;;;1.50;0.50;;;;;;;;;;5036639;28;20660;-70
2022/04/09 12:31:23;;;;;;;0.90;0.23;;;;;;;;;;5042080;28;20032;-73
2022/04/09 12:33:57;;;;;;;0.95;0.17;;;;;;;;;;5038681;28;20271;-71
2022/04/09 12:36:23;;;;;;;1.38;0.22;;;;;;;;;;5050025;28;20086;-72
2022/04/09 12:38:48;;;;;;;1.52;0.20;;;;;;;;;;5039551;28;20390;-72
2022/04/09 12:41:13;;;;;;;2.00;0.20;;;;;;;;;;5033084;28;20120;-71
2022/04/09 12:43:41;;;;;;;2.55;0.40;;;;;;;;;;5044140;28;20033;-71
2022/04/09 12:46:15;;;;;;;0.82;0.30;;;;;;;;;;5035606;28;20108;-71
2022/04/09 12:48:40;;;;;;;0.95;0.10;;;;;;;;;;5036850;28;20025;-71
2022/04/09 12:51:06;;;;;;;1.58;0.10;;;;;;;;;;5043541;28;20370;-71
2022/04/09 12:53:31;;;;;;;0.80;0.10;;;;;;;;;;5048752;28;20021;-71
2022/04/09 12:55:56;;;;;;;0.20;0.10;;;;;;;;;;5047333;28;20063;-71
2022/04/09 12:58:22;;;;;;;0.75;0.15;;;;;;;;;;5039401;28;20029;-73
2022/04/09 13:00:47;;;;;;;0.17;0.10;;;;;;;;;;5052804;28;20021;-72
2022/04/09 13:03:13;;;;;;;1.40;0.10;;;;;;;;;;5043666;28;20067;-71
2022/04/09 13:05:38;;;;;;;0.25;0.10;;;;;;;;;;5039003;28;20045;-72
2022/04/09 13:08:03;;;;;;;0.35;0.10;;;;;;;;;;5038086;28;20496;-71
2022/04/09 13:10:29;;;;;;;0.70;0.20;;;;;;;;;;5058832;28;20020;-71
2022/04/09 13:12:54;;;;;;;1.23;0.10;;;;;;;;;;5049485;28;20040;-72
2022/04/09 13:15:19;;;;;;;1.52;0.10;;;;;;;;;;5044845;28;20029;-74
2022/04/09 13:17:45;;;;;;;0.57;0.20;;;;;;;;;;5040099;28;20108;-73
2022/04/09 13:20:11;;;;;;;0.82;0.20;;;;;;;;;;5022236;28;20033;-72
2022/04/09 13:22:36;;;;;;;0.68;0.10;;;;;;;;;;5036860;28;20652;-70
2022/04/09 13:25:03;;;;;;;0.77;0.25;;;;;;;;;;5042832;28;20017;-70
2022/04/09 13:27:28;;;;;;;0.47;0.20;;;;;;;;;;5033313;28;20390;-70
2022/04/09 13:29:54;;;;;;;0.43;0.20;;;;;;;;;;5023689;28;20030;-70
2022/04/09 13:32:19;;;;;;;0.30;0.20;;;;;;;;;;5020141;28;20032;-73
2022/04/09 13:34:45;;;;;;;0.40;0.20;;;;;;;;;;5038678;28;20055;-72
2022/04/09 13:37:11;;;;;;;0.25;0.10;;;;;;;;;;5035242;28;20044;-72
2022/04/09 13:39:36;;;;;;;0.20;0.10;;;;;;;;;;5035296;28;20033;-73
2022/04/09 13:42:01;;;;;;;0.75;0.10;;;;;;;;;;5035220;28;20029;-71
2022/04/09 13:44:27;;;;;;;0.30;0.10;;;;;;;;;;5039894;28;20529;-72
2022/04/09 13:46:52;;;;;;;1.50;0.10;;;;;;;;;;5037978;28;20485;-69
2022/04/09 13:49:17;;;;;;;0.73;0.10;;;;;;;;;;5035784;28;20043;-69
2022/04/09 13:51:43;;;;;;;0.65;0.20;;;;;;;;;;5034785;28;20030;-69
2022/04/09 13:54:08;;;;;;;1.40;0.80;;;;;;;;;;5038454;28;20029;-70
2022/04/09 13:56:33;;;;;;;2.17;0.20;;;;;;;;;;5035684;28;20064;-70
2022/04/09 13:58:58;;;;;;;0.73;0.40;;;;;;;;;;5021975;28;20463;-70
2022/04/09 14:01:24;;;;;;;0.50;0.20;;;;;;;;;;5038250;28;20804;-70
2022/04/09 14:03:50;;;;;;;0.47;0.20;;;;;;;;;;5036798;28;20889;-69
2022/04/09 14:06:20;;;;;;;0.45;0.10;;;;;;;;;;5044175;28;20429;-71
2022/04/09 14:08:45;;;;;;;0.52;0.10;;;;;;;;;;5038975;28;20506;-71
2022/04/09 14:11:11;;;;;;;0.43;0.13;;;;;;;;;;5048625;28;20028;-72
2022/04/09 14:13:36;;;;;;;0.20;0.10;;;;;;;;;;5054795;28;20020;-72
2022/04/09 14:16:01;;;;;;;0.68;0.20;;;;;;;;;;5051676;28;20099;-71
2022/04/09 14:18:26;;;;;;;0.52;0.20;;;;;;;;;;5051429;28;20121;-72
2022/04/09 14:20:52;;;;;;;0.50;0.20;;;;;;;;;;5050424;28;20024;-72
2022/04/09 14:23:17;;;;;;;0.40;0.10;;;;;;;;;;5050853;28;20039;-73
2022/04/09 14:25:42;;;;;;;1.00;0.22;;;;;;;;;;5051289;28;20025;-73
2022/04/09 14:28:10;;;;;;;0.68;0.20;;;;;;;;;;5038970;28;20017;-73
2022/04/09 14:30:38;;;;;;;0.50;0.20;;;;;;;;;;5034470;28;20486;-67
2022/04/09 14:33:03;;;;;;;1.88;0.10;;;;;;;;;;5046340;28;20013;-71
2022/04/09 14:35:29;;;;;;;0.38;0.13;;;;;;;;;;5047296;28;20437;-64
2022/04/09 14:37:54;;;;;;;0.20;0.20;;;;;;;;;;5047296;28;20029;-65